Terminal Aerodrome Forecast
Issued by NWS Cleveland, OH

Home | Current Version | Previous Version | Text Only | Print | Product List | Glossary Off
Versions: 1 2 3 4 5 6 7 8 9 10 11 12 13

000
FTUS41 KCLE 182321
TAFERI
TAF
KERI 182321Z 1900/1924 34003KT P6SM SCT200
     FM191100 16008KT P6SM BKN120
     FM191500 15004KT P6SM BKN040
     FM191800 05004KT P6SM SCT040 BKN100
     FM192000 04006KT P6SM FEW035 SCT180=

USA.gov is the U.S. government's official web portal to all federal, state and local government web resources and services.